createdAt,value
2019-02-09T00:00:37.426Z,15.65
2019-02-09T00:03:10.516Z,14.58
2019-02-09T00:05:43.205Z,15.40
2019-02-09T00:08:16.492Z,16.47
2019-02-09T00:10:50.382Z,16.70
2019-02-09T00:13:24.410Z,16.87
2019-02-09T00:15:58.413Z,14.43
2019-02-09T00:18:31.407Z,15.05
2019-02-09T00:21:02.977Z,15.07
2019-02-09T00:23:34.370Z,14.60
2019-02-09T00:26:07.584Z,16.40
2019-02-09T00:28:38.845Z,16.80
2019-02-09T00:31:10.247Z,16.23
2019-02-09T00:33:41.519Z,14.37
2019-02-09T00:36:14.534Z,15.57
2019-02-09T00:38:48.970Z,14.80
2019-02-09T00:41:22.571Z,14.13
2019-02-09T00:43:53.911Z,14.83
2019-02-09T00:46:27.409Z,15.60
2019-02-09T00:48:58.658Z,16.20
2019-02-09T00:51:32.655Z,14.30
2019-02-09T00:54:06.694Z,15.17
2019-02-09T00:56:38.463Z,13.33
2019-02-09T00:59:11.678Z,12.07
2019-02-09T01:01:44.595Z,12.82
2019-02-09T01:04:17.790Z,14.40
2019-02-09T01:06:51.043Z,13.03
2019-02-09T01:09:23.879Z,14.07
2019-02-09T01:11:57.813Z,12.77
2019-02-09T01:14:29.032Z,14.20
2019-02-09T01:17:02.804Z,13.80
2019-02-09T01:19:36.842Z,13.57
2019-02-09T01:22:10.839Z,14.07
2019-02-09T01:24:42.103Z,13.57
2019-02-09T01:27:15.691Z,13.53
2019-02-09T01:29:49.873Z,15.20
2019-02-09T01:32:23.865Z,15.57
2019-02-09T01:34:56.084Z,13.77
2019-02-09T01:37:28.903Z,13.13
2019-02-09T01:40:00.206Z,13.17
2019-02-09T01:42:32.204Z,12.97
2019-02-09T01:45:05.497Z,12.70
2019-02-09T01:47:37.844Z,12.82
2019-02-09T01:50:11.975Z,13.50
2019-02-09T01:52:45.150Z,14.43
2019-02-09T01:55:18.797Z,13.60
2019-02-09T01:57:51.953Z,13.68
2019-02-09T02:00:29.255Z,13.95
2019-02-09T02:03:02.298Z,14.87
2019-02-09T02:05:34.101Z,13.07
2019-02-09T02:08:07.840Z,13.43
2019-02-09T02:10:39.594Z,13.48
2019-02-09T02:13:12.862Z,14.65
2019-02-09T02:15:45.001Z,13.73
2019-02-09T02:18:17.071Z,14.30
2019-02-09T02:20:48.337Z,16.73
2019-02-09T02:23:22.047Z,17.75
2019-02-09T02:25:53.984Z,14.73
2019-02-09T02:28:25.999Z,16.47
2019-02-09T02:30:59.957Z,15.87
2019-02-09T02:33:31.241Z,14.03
2019-02-09T02:36:03.510Z,12.67
2019-02-09T02:38:36.152Z,13.37
2019-02-09T02:41:08.183Z,14.30
2019-02-09T02:43:39.445Z,14.40
2019-02-09T02:46:12.156Z,12.57
2019-02-09T02:48:43.673Z,14.37
2019-02-09T02:51:15.016Z,14.03
2019-02-09T02:53:48.236Z,13.73
2019-02-09T02:56:23.984Z,12.33
2019-02-09T02:58:56.240Z,13.13
2019-02-09T03:01:27.517Z,13.45
2019-02-09T03:03:59.163Z,11.77
2019-02-09T03:06:32.182Z,12.93
2019-02-09T03:09:09.042Z,14.40
2019-02-09T03:11:42.314Z,13.33
2019-02-09T03:14:16.086Z,13.23
2019-02-09T03:16:48.356Z,13.03
2019-02-09T03:19:22.307Z,13.10
2019-02-09T03:21:56.195Z,11.20
2019-02-09T03:24:27.459Z,12.20
2019-02-09T03:27:01.396Z,14.00
2019-02-09T03:29:35.501Z,11.60
2019-02-09T03:32:11.019Z,13.60
2019-02-09T03:34:45.402Z,12.00
2019-02-09T03:37:17.122Z,12.45
2019-02-09T03:39:48.389Z,11.80
2019-02-09T03:42:24.256Z,12.37
2019-02-09T03:45:00.020Z,11.60
2019-02-09T03:47:32.530Z,12.70
2019-02-09T03:50:08.394Z,11.17
2019-02-09T03:52:42.407Z,11.83
2019-02-09T03:55:15.584Z,15.57
2019-02-09T03:57:48.493Z,11.13
2019-02-09T04:00:24.421Z,12.43
2019-02-09T04:02:56.921Z,14.18
2019-02-09T04:05:30.724Z,12.40
2019-02-09T04:08:04.825Z,10.90
2019-02-09T04:10:38.620Z,12.27
2019-02-09T04:13:13.285Z,12.53
2019-02-09T04:15:45.682Z,13.50
2019-02-09T04:18:17.209Z,12.53
2019-02-09T04:20:48.514Z,12.33
2019-02-09T04:23:22.167Z,11.63
2019-02-09T04:25:56.040Z,12.67
2019-02-09T04:28:29.661Z,13.75
2019-02-09T04:31:06.543Z,13.50
2019-02-09T04:33:37.657Z,13.60
2019-02-09T04:36:08.934Z,12.47
2019-02-09T04:38:42.740Z,11.90
2019-02-09T04:41:16.740Z,13.37
2019-02-09T04:43:50.725Z,13.38
2019-02-09T04:46:24.769Z,13.40
2019-02-09T04:49:00.236Z,13.25
2019-02-09T04:51:32.662Z,12.07
2019-02-09T04:54:08.245Z,13.20
2019-02-09T04:56:39.464Z,12.43
2019-02-09T04:59:11.723Z,13.08
2019-02-09T05:01:44.892Z,13.43
2019-02-09T05:04:17.009Z,14.60
2019-02-09T05:06:49.764Z,14.20
2019-02-09T05:09:21.455Z,16.42
2019-02-09T05:11:53.622Z,15.88
2019-02-09T05:14:25.757Z,14.47
2019-02-09T05:16:59.762Z,15.00
2019-02-09T05:19:33.836Z,14.83
2019-02-09T05:22:07.889Z,15.27
2019-02-09T05:24:39.227Z,15.00
2019-02-09T05:27:12.965Z,14.17
2019-02-09T05:29:44.827Z,14.05
2019-02-09T05:32:16.863Z,14.07
2019-02-09T05:34:48.143Z,15.10
2019-02-09T05:37:19.397Z,15.35
2019-02-09T05:39:52.859Z,13.95
2019-02-09T05:42:26.925Z,13.83
2019-02-09T05:45:00.992Z,15.20
2019-02-09T05:47:36.555Z,14.87
2019-02-09T05:50:10.334Z,15.40
2019-02-09T05:52:41.659Z,15.20
2019-02-09T05:55:14.271Z,14.67
2019-02-09T05:57:48.252Z,16.12
2019-02-09T06:00:34.732Z,18.75
2019-02-09T06:03:08.230Z,18.70
2019-02-09T06:05:39.476Z,17.00
2019-02-09T06:08:13.021Z,16.63
2019-02-09T06:10:45.294Z,17.73
2019-02-09T06:13:18.756Z,17.75
2019-02-09T06:15:52.205Z,19.03
2019-02-09T06:18:26.212Z,20.80
2019-02-09T06:20:58.052Z,22.07
2019-02-09T06:23:30.277Z,21.83
2019-02-09T06:26:04.533Z,21.57
2019-02-09T06:28:38.238Z,22.83
2019-02-09T06:31:11.263Z,25.23
2019-02-09T06:33:43.203Z,23.62
2019-02-09T06:36:17.241Z,24.10
2019-02-09T06:38:51.364Z,24.97
2019-02-09T06:41:25.253Z,25.70
2019-02-09T06:44:00.804Z,27.45
2019-02-09T06:46:34.293Z,29.15
2019-02-09T06:49:07.476Z,30.00
2019-02-09T06:51:38.910Z,31.20
2019-02-09T06:54:12.276Z,28.20
2019-02-09T06:56:45.235Z,26.10
2019-02-09T06:59:17.383Z,24.83
2019-02-09T07:01:51.321Z,27.13
2019-02-09T07:04:22.622Z,26.17
2019-02-09T07:06:56.346Z,23.90
2019-02-09T07:09:31.908Z,17.77
2019-02-09T07:12:04.833Z,21.50
2019-02-09T07:14:39.688Z,21.77
2019-02-09T07:17:13.213Z,20.55
2019-02-09T07:19:46.282Z,21.80
2019-02-09T07:22:20.409Z,21.20
2019-02-09T07:24:55.088Z,21.07
2019-02-09T07:27:28.321Z,22.10
2019-02-09T07:30:02.455Z,20.20
2019-02-09T07:32:33.805Z,20.43
2019-02-09T07:35:09.155Z,22.60
2019-02-09T07:37:42.633Z,24.13
2019-02-09T07:40:16.180Z,22.77
2019-02-09T07:42:48.511Z,24.17
2019-02-09T07:45:22.597Z,24.15
2019-02-09T07:47:54.531Z,27.27
2019-02-09T07:50:28.864Z,27.03
2019-02-09T07:53:02.485Z,28.47
2019-02-09T07:55:36.595Z,27.60
2019-02-09T07:58:09.603Z,27.63
2019-02-09T08:00:42.488Z,26.40
2019-02-09T08:03:14.697Z,24.92
2019-02-09T08:05:46.076Z,26.30
2019-02-09T08:08:17.477Z,34.80
2019-02-09T08:10:51.698Z,36.07
2019-02-09T08:13:25.719Z,33.55
2019-02-09T08:15:59.652Z,33.30
2019-02-09T08:18:31.623Z,33.80
2019-02-09T08:21:04.636Z,30.47
2019-02-09T08:23:38.525Z,28.50
2019-02-09T08:26:12.684Z,28.83
2019-02-09T08:28:45.847Z,25.73
2019-02-09T08:31:19.932Z,25.75
2019-02-09T08:33:53.817Z,26.77
2019-02-09T08:36:26.012Z,27.30
2019-02-09T08:38:58.624Z,28.00
2019-02-09T08:41:30.343Z,26.93
2019-02-09T08:44:03.758Z,30.60
2019-02-09T08:46:37.860Z,29.33
2019-02-09T08:49:11.943Z,28.77
2019-02-09T08:51:48.834Z,25.53
2019-02-09T08:54:23.906Z,25.87
2019-02-09T08:56:56.989Z,26.13
2019-02-09T08:59:28.318Z,25.73
2019-02-09T09:02:03.278Z,28.47
2019-02-09T09:04:37.030Z,30.50
2019-02-09T09:07:10.230Z,30.47
2019-02-09T09:09:42.163Z,35.03
2019-02-09T09:12:14.812Z,35.93
2019-02-09T09:14:48.913Z,36.37
2019-02-09T09:17:23.026Z,36.30
2019-02-09T09:19:56.823Z,36.00
2019-02-09T09:22:30.982Z,37.13
2019-02-09T09:25:02.238Z,32.30
2019-02-09T09:27:33.478Z,34.20
2019-02-09T09:30:09.147Z,33.90
2019-02-09T09:32:42.996Z,32.57
2019-02-09T09:35:15.237Z,32.50
2019-02-09T09:37:48.868Z,29.60
2019-02-09T09:40:25.258Z,25.87
2019-02-09T09:42:57.340Z,27.20
2019-02-09T09:45:33.062Z,24.90
2019-02-09T09:48:05.835Z,24.57
2019-02-09T09:50:39.321Z,25.13
2019-02-09T09:53:12.839Z,24.53
2019-02-09T09:55:44.245Z,24.13
2019-02-09T09:58:18.149Z,25.00
2019-02-09T10:00:51.301Z,25.80
2019-02-09T10:03:25.092Z,23.60
2019-02-09T10:05:59.099Z,26.00
2019-02-09T10:08:31.159Z,25.63
2019-02-09T10:11:07.252Z,28.40
2019-02-09T10:13:39.216Z,30.07
2019-02-09T10:16:12.110Z,29.07
2019-02-09T10:18:45.391Z,29.70
2019-02-09T10:21:17.179Z,28.87
2019-02-09T10:23:49.278Z,28.77
2019-02-09T10:26:23.031Z,29.15
2019-02-09T10:28:54.302Z,28.43
2019-02-09T10:31:27.233Z,28.47
2019-02-09T10:33:58.503Z,28.27
2019-02-09T10:36:33.902Z,28.37
2019-02-09T10:39:09.734Z,29.90
2019-02-09T10:41:42.333Z,27.80
2019-02-09T10:44:14.336Z,26.27
2019-02-09T10:46:48.203Z,26.33
2019-02-09T10:49:19.451Z,27.30
2019-02-09T10:51:53.265Z,27.40
2019-02-09T10:54:25.447Z,25.67
2019-02-09T10:56:58.470Z,24.07
2019-02-09T10:59:34.220Z,24.50
2019-02-09T11:02:06.669Z,22.43
2019-02-09T11:04:39.273Z,24.47
2019-02-09T11:07:11.196Z,23.43
2019-02-09T11:09:45.468Z,22.53
2019-02-09T11:12:19.399Z,24.37
2019-02-09T11:14:52.942Z,25.13
2019-02-09T11:17:26.975Z,23.07
2019-02-09T11:20:00.543Z,23.73
2019-02-09T11:22:31.840Z,23.83
2019-02-09T11:25:03.351Z,22.80
2019-02-09T11:27:36.571Z,19.93
2019-02-09T11:30:13.998Z,21.10
2019-02-09T11:32:45.558Z,19.90
2019-02-09T11:35:18.685Z,20.90
2019-02-09T11:37:51.660Z,19.80
2019-02-09T11:40:23.885Z,19.80
2019-02-09T11:42:58.346Z,22.93
2019-02-09T11:45:32.345Z,23.00
2019-02-09T11:48:06.257Z,22.30
2019-02-09T11:50:38.514Z,22.13
2019-02-09T11:53:10.642Z,24.07
2019-02-09T11:55:42.739Z,22.70
2019-02-09T11:58:16.223Z,21.33
2019-02-09T12:00:51.987Z,21.07
2019-02-09T12:03:23.574Z,20.07
2019-02-09T12:05:57.664Z,20.30
2019-02-09T12:08:31.699Z,19.53
2019-02-09T12:11:05.651Z,16.97
2019-02-09T12:13:39.504Z,19.07
2019-02-09T12:16:15.280Z,15.00
2019-02-09T12:18:48.659Z,14.70
2019-02-09T12:21:20.730Z,14.77
2019-02-09T12:23:54.693Z,16.70
2019-02-09T12:26:26.079Z,17.20
2019-02-09T12:28:57.354Z,19.03
2019-02-09T12:31:30.880Z,23.73
2019-02-09T12:34:04.950Z,18.20
2019-02-09T12:36:40.444Z,19.73
2019-02-09T12:39:12.832Z,25.53
2019-02-09T12:41:45.811Z,26.53
2019-02-09T12:44:17.884Z,26.20
2019-02-09T12:46:49.175Z,25.77
2019-02-09T12:49:22.844Z,25.57
2019-02-09T12:51:56.855Z,23.47
2019-02-09T12:54:28.922Z,23.57
2019-02-09T12:57:01.798Z,24.03
2019-02-09T12:59:35.896Z,24.20
2019-02-09T13:02:08.789Z,29.37
2019-02-09T13:04:40.153Z,24.50
2019-02-09T13:07:12.417Z,21.70
2019-02-09T13:09:45.933Z,21.53
2019-02-09T13:12:18.968Z,18.67
2019-02-09T13:14:56.936Z,17.80
2019-02-09T13:17:28.885Z,18.57
2019-02-09T13:20:02.798Z,19.03
2019-02-09T13:22:35.121Z,19.10
2019-02-09T13:25:09.236Z,18.53
2019-02-09T13:27:40.476Z,17.10
2019-02-09T13:30:20.764Z,19.10
2019-02-09T13:32:54.220Z,17.30
2019-02-09T13:35:28.289Z,18.07
2019-02-09T13:38:02.062Z,17.73
2019-02-09T13:40:36.012Z,16.43
2019-02-09T13:43:09.179Z,16.37
2019-02-09T13:45:43.419Z,17.43
2019-02-09T13:48:15.101Z,21.60
2019-02-09T13:50:50.741Z,17.30
2019-02-09T13:53:23.067Z,16.63
2019-02-09T13:55:56.245Z,17.83
2019-02-09T13:58:30.154Z,17.37
2019-02-09T14:01:01.637Z,17.13
2019-02-09T14:03:32.881Z,15.10
2019-02-09T14:06:08.363Z,15.30
2019-02-09T14:08:39.549Z,27.50
2019-02-09T14:11:11.187Z,34.87
2019-02-09T14:13:43.179Z,24.67
2019-02-09T14:16:16.280Z,28.60
2019-02-09T14:18:49.244Z,19.40
2019-02-09T14:21:21.249Z,18.55
2019-02-09T14:23:56.949Z,18.20
2019-02-09T14:26:29.334Z,25.63
2019-02-09T14:29:03.279Z,17.75
2019-02-09T14:31:37.542Z,12.43
2019-02-09T14:34:11.658Z,12.47
2019-02-09T14:36:43.283Z,12.50
2019-02-09T14:39:16.322Z,11.03
2019-02-09T14:41:47.579Z,11.23
2019-02-09T14:44:21.264Z,10.90
2019-02-09T14:46:55.491Z,10.17
2019-02-09T14:49:29.395Z,10.23
2019-02-09T14:52:01.447Z,19.37
2019-02-09T14:54:34.346Z,20.72
2019-02-09T14:57:08.562Z,13.70
2019-02-09T14:59:39.982Z,15.93
2019-02-09T15:02:13.367Z,15.80
2019-02-09T15:04:47.378Z,15.30
2019-02-09T15:07:18.665Z,10.57
2019-02-09T15:09:52.354Z,9.70
2019-02-09T15:12:24.488Z,12.10
2019-02-09T15:14:57.430Z,14.50
2019-02-09T15:17:31.346Z,10.37
2019-02-09T15:20:02.614Z,12.90
2019-02-09T15:22:36.370Z,10.50
2019-02-09T15:25:10.583Z,13.40
2019-02-09T15:27:45.197Z,12.87
2019-02-09T15:30:21.282Z,17.70
2019-02-09T15:32:52.621Z,22.17
2019-02-09T15:35:26.538Z,17.87
2019-02-09T15:38:00.557Z,15.50
2019-02-09T15:40:33.702Z,13.77
2019-02-09T15:43:05.764Z,13.70
2019-02-09T15:45:38.575Z,13.90
2019-02-09T15:48:12.679Z,12.77
2019-02-09T15:50:44.235Z,12.70
2019-02-09T15:53:19.375Z,11.05
2019-02-09T15:55:51.753Z,10.40
2019-02-09T15:58:25.841Z,10.73
2019-02-09T16:00:59.796Z,11.13
2019-02-09T16:03:33.707Z,10.30
2019-02-09T16:06:05.154Z,10.03
2019-02-09T16:08:38.741Z,10.93
2019-02-09T16:11:10.695Z,10.87
2019-02-09T16:13:45.886Z,10.93
2019-02-09T16:16:17.603Z,10.90
2019-02-09T16:18:51.608Z,10.10
2019-02-09T16:21:25.709Z,11.03
2019-02-09T16:23:57.002Z,12.93
2019-02-09T16:26:31.394Z,12.87
2019-02-09T16:29:04.718Z,12.80
2019-02-09T16:31:36.148Z,13.23
2019-02-09T16:34:09.846Z,13.93
2019-02-09T16:36:42.721Z,13.23
2019-02-09T16:39:14.932Z,15.20
2019-02-09T16:41:46.183Z,14.30
2019-02-09T16:44:19.718Z,14.90
2019-02-09T16:46:52.095Z,13.10
2019-02-09T16:49:24.914Z,14.78
2019-02-09T16:52:00.849Z,15.32
2019-02-09T16:54:32.898Z,17.53
2019-02-09T16:57:05.964Z,16.40
2019-02-09T16:59:39.770Z,18.03
2019-02-09T17:02:11.442Z,20.00
2019-02-09T17:04:42.741Z,18.87
2019-02-09T17:07:16.094Z,19.17
2019-02-09T17:09:49.933Z,18.10
2019-02-09T17:12:24.028Z,18.80
2019-02-09T17:14:58.196Z,17.90
2019-02-09T17:17:32.045Z,18.13
2019-02-09T17:20:03.299Z,17.40
2019-02-09T17:22:34.548Z,17.67
2019-02-09T17:25:08.575Z,18.15
2019-02-09T17:27:40.100Z,18.00
2019-02-09T17:30:22.418Z,18.20
2019-02-09T17:32:53.912Z,16.37
2019-02-09T17:35:27.117Z,17.63
2019-02-09T17:38:01.355Z,17.07
2019-02-09T17:40:37.456Z,17.10
2019-02-09T17:43:09.963Z,16.60
2019-02-09T17:45:52.235Z,16.30
2019-02-09T17:48:26.210Z,17.47
2019-02-09T17:51:00.276Z,16.03
2019-02-09T17:53:31.961Z,17.53
2019-02-09T17:56:03.215Z,17.30
2019-02-09T17:58:36.332Z,17.03
2019-02-09T18:01:11.257Z,16.03
2019-02-09T18:03:43.141Z,15.40
2019-02-09T18:06:15.265Z,15.70
2019-02-09T18:08:49.292Z,16.13
2019-02-09T18:11:24.902Z,16.93
2019-02-09T18:13:57.329Z,18.47
2019-02-09T18:16:30.789Z,20.63
2019-02-09T18:19:03.290Z,19.13
2019-02-09T18:21:37.388Z,21.70
2019-02-09T18:24:10.289Z,19.57
2019-02-09T18:26:43.467Z,20.27
2019-02-09T18:29:16.160Z,21.13
2019-02-09T18:31:49.359Z,16.97
2019-02-09T18:34:23.414Z,17.47
2019-02-09T18:36:55.479Z,13.63
2019-02-09T18:39:28.418Z,14.20
2019-02-09T18:42:02.407Z,16.30
2019-02-09T18:44:36.354Z,16.80
2019-02-09T18:47:08.239Z,18.40
2019-02-09T18:49:39.922Z,29.90
2019-02-09T18:52:12.447Z,30.77
2019-02-09T18:54:46.778Z,20.13
2019-02-09T18:57:20.554Z,21.30
2019-02-09T18:59:52.527Z,21.27
2019-02-09T19:02:25.100Z,19.80
2019-02-09T19:05:03.209Z,21.20
2019-02-09T19:07:30.542Z,21.43
2019-02-09T19:10:04.211Z,22.60
2019-02-09T19:12:35.550Z,21.67
2019-02-09T19:15:08.518Z,22.47
2019-02-09T19:17:40.059Z,23.17
2019-02-09T19:20:18.983Z,21.90
2019-02-09T19:22:51.865Z,20.10
2019-02-09T19:25:23.759Z,21.53
2019-02-09T19:27:56.740Z,20.97
2019-02-09T19:30:31.452Z,19.87
2019-02-09T19:33:05.492Z,18.90
2019-02-09T19:35:38.667Z,21.47
2019-02-09T19:38:12.728Z,25.33
2019-02-09T19:40:43.981Z,26.73
2019-02-09T19:43:17.714Z,26.60
2019-02-09T19:45:51.735Z,25.27
2019-02-09T19:48:27.350Z,25.00
2019-02-09T19:50:59.776Z,22.13
2019-02-09T19:53:33.702Z,21.73
2019-02-09T19:56:05.213Z,20.00
2019-02-09T19:58:38.792Z,23.13
2019-02-09T20:01:12.809Z,19.43
2019-02-09T20:03:48.386Z,17.90
2019-02-09T20:06:21.832Z,19.33
2019-02-09T20:08:54.622Z,19.65
2019-02-09T20:11:25.905Z,19.20
2019-02-09T20:13:59.938Z,21.23
2019-02-09T20:16:32.817Z,21.17
2019-02-09T20:19:06.812Z,23.43
2019-02-09T20:21:40.137Z,22.07
2019-02-09T20:24:11.920Z,24.33
2019-02-09T20:26:43.813Z,22.73
2019-02-09T20:29:15.103Z,26.07
2019-02-09T20:31:46.818Z,24.63
2019-02-09T20:34:18.471Z,23.73
2019-02-09T20:36:51.990Z,24.53
2019-02-09T20:39:26.029Z,24.93
2019-02-09T20:42:00.032Z,23.57
2019-02-09T20:44:33.918Z,24.30
2019-02-09T20:47:07.983Z,23.50
2019-02-09T20:49:39.251Z,24.43
2019-02-09T20:52:13.094Z,23.10
2019-02-09T20:54:46.993Z,24.30
2019-02-09T20:57:22.579Z,23.60
2019-02-09T20:59:55.022Z,22.63
2019-02-09T21:02:28.762Z,23.57
2019-02-09T21:05:00.859Z,20.43
2019-02-09T21:07:34.058Z,21.73
2019-02-09T21:10:11.672Z,19.40
2019-02-09T21:12:43.426Z,18.63
2019-02-09T21:15:15.762Z,20.00
2019-02-09T21:17:49.249Z,20.77
2019-02-09T21:20:23.105Z,20.10
2019-02-09T21:22:57.203Z,21.00
2019-02-09T21:25:32.806Z,20.60
2019-02-09T21:28:04.461Z,18.70
2019-02-09T21:30:37.220Z,17.90
2019-02-09T21:33:09.282Z,20.53
2019-02-09T21:35:44.186Z,19.70
2019-02-09T21:38:14.096Z,20.50
2019-02-09T21:40:45.383Z,20.57
2019-02-09T21:43:20.789Z,19.70
2019-02-09T21:45:53.201Z,21.80
2019-02-09T21:48:27.270Z,22.33
2019-02-09T21:51:01.223Z,22.53
2019-02-09T21:53:35.424Z,20.40
2019-02-09T21:56:09.195Z,20.20
2019-02-09T21:58:40.622Z,20.50
2019-02-09T22:01:13.229Z,20.50
2019-02-09T22:03:46.414Z,20.77
2019-02-09T22:06:18.303Z,20.77
2019-02-09T22:08:52.218Z,19.40
2019-02-09T22:11:23.663Z,19.67
2019-02-09T22:13:57.340Z,22.40
2019-02-09T22:16:31.350Z,21.47
2019-02-09T22:19:05.436Z,20.10
2019-02-09T22:21:39.732Z,20.70
2019-02-09T22:24:12.976Z,20.20
2019-02-09T22:26:44.276Z,20.10
2019-02-09T22:29:17.434Z,14.80
2019-02-09T22:31:51.343Z,18.67
2019-02-09T22:34:25.446Z,18.33
2019-02-09T22:36:59.447Z,17.57
2019-02-09T22:39:33.267Z,16.00
2019-02-09T22:42:04.664Z,15.20
2019-02-09T22:44:38.500Z,15.20
2019-02-09T22:47:12.557Z,15.50
2019-02-09T22:49:46.626Z,13.70
2019-02-09T22:52:19.501Z,16.50
2019-02-09T22:54:50.872Z,19.73
2019-02-09T22:57:22.504Z,18.57
2019-02-09T22:59:55.455Z,13.50
2019-02-09T23:02:28.296Z,12.60
2019-02-09T23:05:41.650Z,12.80
2019-02-09T23:08:13.481Z,11.77
2019-02-09T23:10:44.754Z,11.00
2019-02-09T23:13:18.915Z,10.78
2019-02-09T23:15:52.739Z,11.33
2019-02-09T23:18:24.214Z,10.70
2019-02-09T23:20:56.665Z,11.87
2019-02-09T23:23:31.217Z,11.23
2019-02-09T23:26:04.677Z,11.37
2019-02-09T23:28:36.164Z,12.37
2019-02-09T23:31:07.588Z,12.03
2019-02-09T23:33:40.158Z,13.13
2019-02-09T23:36:16.299Z,13.73
2019-02-09T23:38:45.040Z,16.30
2019-02-09T23:41:16.716Z,15.43
2019-02-09T23:43:48.652Z,17.17
2019-02-09T23:46:20.602Z,16.90
2019-02-09T23:48:53.790Z,15.50
2019-02-09T23:51:25.839Z,15.50
2019-02-09T23:53:58.645Z,15.37
2019-02-09T23:56:29.952Z,16.27
2019-02-09T23:59:02.580Z,15.53
